Terminal Aerodrome Forecast
Issued by NWS

Home | Current Version | Previous Version | Text Only | Print | Product List | Glossary On
Versions: 1 2 3 4 5 6 7 8 9 10 11 12 13 14 15 16 17
000
FTUS41 KBOX 181722
TAFACK
TAF
KACK 181722Z 1818/1918 06011KT P6SM OVC015
     FM190200 35004KT P6SM BKN035
     FM190400 VRB03KT P6SM BKN060
     FM191000 28007KT P6SM SCT130
     FM191500 29011KT P6SM FEW250=

USA.gov is the U.S. government's official web portal to all federal, state and local government web resources and services.